createdAt,value
2018-11-06T00:00:11.188Z,17.8
2018-11-06T00:01:02.066Z,17.8
2018-11-06T00:01:53.107Z,17.8
2018-11-06T00:02:41.699Z,17.8
2018-11-06T00:03:32.913Z,17.8
2018-11-06T00:04:22.513Z,17.8
2018-11-06T00:05:12.964Z,17.8
2018-11-06T00:06:00.989Z,17.8
2018-11-06T00:06:51.375Z,17.8
2018-11-06T00:25:09.037Z,17.5
2018-11-06T00:25:59.601Z,17.5
2018-11-06T00:26:49.218Z,17.5
2018-11-06T00:27:39.151Z,17.5
2018-11-06T00:28:29.834Z,17.5
2018-11-06T00:29:18.907Z,17.5
2018-11-06T00:30:09.084Z,17.5
2018-11-06T00:30:59.447Z,17.5
2018-11-06T00:31:49.322Z,17.5
2018-11-06T00:32:40.162Z,17.5
2018-11-06T00:33:28.314Z,17.6
2018-11-06T00:34:21.246Z,17.6
2018-11-06T00:35:09.812Z,17.6
2018-11-06T00:36:00.178Z,17.6
2018-11-06T00:36:50.379Z,17.6
2018-11-06T00:37:39.719Z,17.6
2018-11-06T00:38:28.074Z,17.6
2018-11-06T00:39:19.569Z,17.6
2018-11-06T00:40:09.921Z,17.6
2018-11-06T00:40:59.699Z,17.6
2018-11-06T00:41:50.307Z,17.6
2018-11-06T00:42:39.387Z,17.6
2018-11-06T00:43:29.706Z,17.6
2018-11-06T00:44:20.791Z,17.6
2018-11-06T00:45:09.984Z,17.7
2018-11-06T00:46:00.549Z,17.7
2018-11-06T00:46:49.081Z,17.7
2018-11-06T00:47:40.261Z,17.7
2018-11-06T00:48:30.364Z,17.7
2018-11-06T00:49:20.559Z,17.7
2018-11-06T00:50:10.080Z,17.7
2018-11-06T00:51:00.931Z,17.7
2018-11-06T00:51:51.483Z,17.7
2018-11-06T00:52:39.884Z,17.6
2018-11-06T00:53:29.936Z,17.7
2018-11-06T00:54:19.850Z,17.6
2018-11-06T00:55:11.260Z,17.7
2018-11-06T00:56:01.608Z,17.7
2018-11-06T00:56:51.355Z,17.7
2018-11-06T00:57:42.345Z,17.7
2018-11-06T00:58:31.122Z,17.7
2018-11-06T00:59:21.215Z,17.7
2018-11-06T01:00:11.033Z,17.7
2018-11-06T01:01:01.513Z,17.7
2018-11-06T01:01:52.458Z,17.7
2018-11-06T01:02:41.166Z,17.6
2018-11-06T01:03:32.155Z,17.6
2018-11-06T01:04:22.153Z,17.7
2018-11-06T01:05:11.344Z,17.6
2018-11-06T01:06:01.838Z,17.6
2018-11-06T01:06:52.235Z,17.6
2018-11-06T01:07:41.870Z,17.6
2018-11-06T01:08:33.032Z,17.6
2018-11-06T01:09:21.939Z,17.6
2018-11-06T01:10:12.114Z,17.7
2018-11-06T01:11:02.434Z,17.7
2018-11-06T01:11:52.232Z,17.7
2018-11-06T01:12:43.124Z,17.7
2018-11-06T01:13:32.809Z,17.7
2018-11-06T01:14:22.756Z,17.6
2018-11-06T01:15:13.273Z,17.7
2018-11-06T01:16:03.010Z,17.6
2018-11-06T01:16:52.795Z,17.6
2018-11-06T01:17:42.631Z,17.6
2018-11-06T01:18:32.810Z,17.6
2018-11-06T01:19:22.802Z,17.6
2018-11-06T01:20:13.319Z,17.6
2018-11-06T01:21:02.704Z,17.6
2018-11-06T01:21:53.031Z,17.6
2018-11-06T01:22:43.624Z,17.6
2018-11-06T01:23:33.281Z,17.6
2018-11-06T01:24:22.833Z,17.7
2018-11-06T01:25:12.179Z,17.6
2018-11-06T01:26:03.819Z,17.6
2018-11-06T01:26:53.524Z,17.6
2018-11-06T01:27:43.398Z,17.6
2018-11-06T01:28:34.498Z,17.6
2018-11-06T01:29:22.584Z,17.6
2018-11-06T01:30:13.496Z,17.6
2018-11-06T01:31:03.113Z,17.6
2018-11-06T01:31:52.818Z,17.6
2018-11-06T01:32:44.248Z,17.6
2018-11-06T01:33:34.496Z,17.6
2018-11-06T01:34:24.352Z,17.6
2018-11-06T01:35:14.203Z,17.6
2018-11-06T01:36:04.003Z,17.6
2018-11-06T01:36:54.028Z,17.6
2018-11-06T01:37:44.317Z,17.6
2018-11-06T01:38:34.583Z,17.6
2018-11-06T01:39:24.271Z,17.6
2018-11-06T01:40:15.347Z,17.6
2018-11-06T01:41:03.791Z,17.6
2018-11-06T01:41:54.867Z,17.6
2018-11-06T01:42:45.349Z,17.6
2018-11-06T01:43:35.682Z,17.6
2018-11-06T01:44:24.440Z,17.6
2018-11-06T01:45:14.745Z,17.6
2018-11-06T01:46:04.967Z,17.6
2018-11-06T01:46:54.112Z,17.6
2018-11-06T01:47:45.624Z,17.6
2018-11-06T01:48:34.584Z,17.6
2018-11-06T01:49:24.981Z,17.6
2018-11-06T01:50:14.567Z,17.6
2018-11-06T01:51:04.617Z,17.6
2018-11-06T01:51:54.719Z,17.6
2018-11-06T01:52:45.402Z,17.6
2018-11-06T01:53:36.062Z,17.6
2018-11-06T01:54:26.061Z,17.6
2018-11-06T01:55:15.557Z,17.6
2018-11-06T01:56:06.742Z,17.6
2018-11-06T01:56:54.845Z,17.6
2018-11-06T01:57:45.377Z,17.6
2018-11-06T01:58:34.641Z,17.6
2018-11-06T01:59:25.183Z,17.6
2018-11-06T02:00:16.801Z,17.6
2018-11-06T02:01:06.524Z,17.6
2018-11-06T02:01:56.233Z,17.6
2018-11-06T02:02:45.611Z,17.6
2018-11-06T02:03:35.539Z,17.6
2018-11-06T02:04:26.061Z,17.6
2018-11-06T02:05:16.128Z,17.6
2018-11-06T02:06:06.893Z,17.6
2018-11-06T02:06:56.994Z,17.6
2018-11-06T02:07:45.726Z,17.6
2018-11-06T02:08:36.893Z,17.6
2018-11-06T02:09:26.451Z,17.6
2018-11-06T02:10:15.943Z,17.6
2018-11-06T02:11:06.753Z,17.6
2018-11-06T02:11:55.813Z,17.6
2018-11-06T02:12:46.362Z,17.6
2018-11-06T02:13:36.663Z,17.6
2018-11-06T02:14:26.536Z,17.6
2018-11-06T02:15:16.354Z,17.6
2018-11-06T02:16:05.793Z,17.6
2018-11-06T02:16:55.944Z,17.5
2018-11-06T02:17:46.813Z,17.6
2018-11-06T02:18:37.549Z,17.5
2018-11-06T02:19:28.020Z,17.6
2018-11-06T02:20:17.501Z,17.6
2018-11-06T02:21:07.242Z,17.6
2018-11-06T02:21:57.917Z,17.5
2018-11-06T02:22:48.475Z,17.5
2018-11-06T02:23:36.000Z,17.6
2018-11-06T02:24:27.460Z,17.5
2018-11-06T02:25:18.093Z,17.5
2018-11-06T02:26:07.511Z,17.6
2018-11-06T02:26:57.637Z,17.5
2018-11-06T02:27:48.018Z,17.6
2018-11-06T02:28:38.107Z,17.5
2018-11-06T02:29:28.195Z,17.6
2018-11-06T02:30:18.197Z,17.5
2018-11-06T02:31:07.268Z,17.5
2018-11-06T02:31:59.656Z,17.5
2018-11-06T02:32:48.730Z,17.5
2018-11-06T02:33:37.673Z,17.5
2018-11-06T02:34:27.882Z,17.5
2018-11-06T02:35:19.128Z,17.5
2018-11-06T02:36:08.620Z,17.5
2018-11-06T02:36:58.407Z,17.5
2018-11-06T02:37:47.896Z,17.5
2018-11-06T02:38:38.490Z,17.6
2018-11-06T02:39:29.084Z,17.5
2018-11-06T02:40:18.622Z,17.5
2018-11-06T02:41:09.112Z,17.5
2018-11-06T02:41:58.754Z,17.5
2018-11-06T02:42:49.023Z,17.5
2018-11-06T02:43:39.125Z,17.5
2018-11-06T02:44:29.204Z,17.5
2018-11-06T02:45:18.738Z,17.5
2018-11-06T02:46:08.839Z,17.5
2018-11-06T02:46:59.366Z,17.5
2018-11-06T02:47:49.183Z,17.5
2018-11-06T02:48:39.515Z,17.5
2018-11-06T02:49:29.040Z,17.5
2018-11-06T02:50:19.174Z,17.5
2018-11-06T02:51:09.428Z,17.5
2018-11-06T02:52:00.301Z,17.5
2018-11-06T02:52:49.927Z,17.5
2018-11-06T02:53:39.895Z,17.4
2018-11-06T02:54:29.751Z,17.5
2018-11-06T02:55:20.023Z,17.5
2018-11-06T02:56:10.431Z,17.4
2018-11-06T02:57:00.413Z,17.5
2018-11-06T02:57:49.733Z,17.4
2018-11-06T02:58:40.798Z,17.5
2018-11-06T02:59:29.277Z,17.4
2018-11-06T03:00:20.913Z,17.4
2018-11-06T03:01:09.541Z,17.4
2018-11-06T03:01:59.766Z,17.5
2018-11-06T03:02:49.799Z,17.4
2018-11-06T03:03:39.622Z,17.4
2018-11-06T03:04:29.625Z,17.5
2018-11-06T03:05:20.935Z,17.4
2018-11-06T03:06:11.030Z,17.5
2018-11-06T03:07:00.883Z,17.4
2018-11-06T03:07:51.643Z,17.4
2018-11-06T03:08:40.407Z,17.4
2018-11-06T03:09:31.576Z,17.4
2018-11-06T03:10:22.542Z,17.4
2018-11-06T03:11:10.407Z,17.4
2018-11-06T03:12:01.506Z,17.4
2018-11-06T03:12:51.001Z,17.4
2018-11-06T03:13:40.920Z,17.4
2018-11-06T03:14:31.313Z,17.4
2018-11-06T03:15:20.922Z,17.4
2018-11-06T03:16:10.755Z,17.4
2018-11-06T03:17:00.992Z,17.4
2018-11-06T03:17:51.029Z,17.4
2018-11-06T03:18:41.262Z,17.5
2018-11-06T03:19:31.504Z,17.4
2018-11-06T03:20:21.577Z,17.4
2018-11-06T03:21:12.010Z,17.4
2018-11-06T03:22:01.644Z,17.4
2018-11-06T03:22:52.539Z,17.4
2018-11-06T03:23:42.844Z,17.4
2018-11-06T03:24:31.874Z,17.4
2018-11-06T03:25:22.187Z,17.4
2018-11-06T03:26:11.687Z,17.4
2018-11-06T03:27:03.325Z,17.4
2018-11-06T03:27:51.514Z,17.4
2018-11-06T03:28:42.021Z,17.4
2018-11-06T03:29:31.859Z,17.4
2018-11-06T03:30:21.486Z,17.4
2018-11-06T03:31:11.486Z,17.4
2018-11-06T03:32:02.679Z,17.4
2018-11-06T03:32:52.559Z,17.4
2018-11-06T03:33:42.609Z,17.4
2018-11-06T03:34:31.075Z,17.4
2018-11-06T03:35:22.419Z,17.4
2018-11-06T03:36:11.933Z,17.4
2018-11-06T03:37:02.921Z,17.4
2018-11-06T03:37:52.578Z,17.4
2018-11-06T03:38:42.669Z,17.4
2018-11-06T03:39:32.891Z,17.4
2018-11-06T03:40:21.945Z,17.4
2018-11-06T03:41:12.673Z,17.4
2018-11-06T03:42:02.581Z,17.4
2018-11-06T03:42:52.831Z,17.4
2018-11-06T03:43:42.770Z,17.4
2018-11-06T03:44:31.955Z,17.4
2018-11-06T03:45:23.653Z,17.4
2018-11-06T03:46:14.262Z,17.4
2018-11-06T03:47:03.800Z,17.4
2018-11-06T03:47:53.486Z,17.4
2018-11-06T03:48:44.371Z,17.4
2018-11-06T03:49:33.986Z,17.4
2018-11-06T03:50:23.772Z,17.4
2018-11-06T03:51:13.217Z,17.4
2018-11-06T03:52:03.620Z,17.4
2018-11-06T03:52:54.140Z,17.4
2018-11-06T03:53:43.083Z,17.4
2018-11-06T03:54:34.577Z,17.4
2018-11-06T03:55:23.422Z,17.4
2018-11-06T03:56:13.840Z,17.4
2018-11-06T03:57:04.179Z,17.4
2018-11-06T03:57:54.497Z,17.4
2018-11-06T03:58:44.077Z,17.4
2018-11-06T03:59:34.160Z,17.4
2018-11-06T04:00:23.439Z,17.4
2018-11-06T04:01:14.260Z,17.4
2018-11-06T04:02:03.750Z,17.4
2018-11-06T04:02:53.927Z,17.4
2018-11-06T04:03:44.114Z,17.4
2018-11-06T04:04:33.659Z,17.4
2018-11-06T04:05:25.039Z,17.4
2018-11-06T04:06:14.583Z,17.4
2018-11-06T04:07:05.007Z,17.4
2018-11-06T04:07:54.666Z,17.4
2018-11-06T04:08:45.017Z,17.4
2018-11-06T04:09:34.450Z,17.4
2018-11-06T04:10:25.549Z,17.4
2018-11-06T04:11:15.569Z,17.4
2018-11-06T04:12:04.929Z,17.4
2018-11-06T04:12:54.590Z,17.4
2018-11-06T04:13:45.348Z,17.4
2018-11-06T04:14:35.011Z,17.4
2018-11-06T04:15:25.344Z,17.4
2018-11-06T04:16:16.152Z,17.4
2018-11-06T04:17:05.881Z,17.3
2018-11-06T04:17:56.563Z,17.3
2018-11-06T04:18:45.220Z,17.3
2018-11-06T04:19:34.951Z,17.3
2018-11-06T04:20:25.619Z,17.4
2018-11-06T04:21:15.656Z,17.3
2018-11-06T04:22:06.071Z,17.3
2018-11-06T04:22:56.313Z,17.3
2018-11-06T04:23:46.751Z,17.3
2018-11-06T04:24:36.981Z,17.3
2018-11-06T04:25:27.223Z,17.3
2018-11-06T04:26:16.101Z,17.3
2018-11-06T04:27:05.893Z,17.3
2018-11-06T04:27:55.636Z,17.3
2018-11-06T04:28:46.511Z,17.3
2018-11-06T04:29:36.863Z,17.3
2018-11-06T04:30:27.151Z,17.3
2018-11-06T04:31:16.643Z,17.3
2018-11-06T04:32:06.386Z,17.3
2018-11-06T04:32:57.665Z,17.3
2018-11-06T04:33:46.628Z,17.3
2018-11-06T04:34:36.865Z,17.3
2018-11-06T04:35:27.285Z,17.3
2018-11-06T04:36:17.036Z,17.3
2018-11-06T04:54:17.461Z,17.1
2018-11-06T04:55:09.115Z,17.1
2018-11-06T04:55:57.544Z,17.1
2018-11-06T04:56:49.197Z,17.1
2018-11-06T04:57:38.987Z,17.1
2018-11-06T04:58:28.706Z,17.1
2018-11-06T04:59:19.742Z,17.1
2018-11-06T05:00:08.453Z,17.1
2018-11-06T05:00:59.320Z,17.1
2018-11-06T05:01:48.128Z,17.1
2018-11-06T05:02:37.722Z,17.1
2018-11-06T05:03:29.064Z,17.1
2018-11-06T05:04:18.122Z,17.2
2018-11-06T05:05:09.234Z,17.2
2018-11-06T05:05:59.486Z,17.2
2018-11-06T05:06:50.393Z,17.2
2018-11-06T05:07:40.648Z,17.2
2018-11-06T05:08:30.129Z,17.2
2018-11-06T05:09:19.856Z,17.2
2018-11-06T05:10:10.429Z,17.2
2018-11-06T05:11:01.603Z,17.2
2018-11-06T05:11:49.806Z,17.2
2018-11-06T05:12:39.895Z,17.3
2018-11-06T05:13:45.240Z,17.3
2018-11-06T05:14:22.027Z,17.3
2018-11-06T05:15:25.128Z,17.2
2018-11-06T05:15:59.236Z,17.3
2018-11-06T05:16:50.988Z,17.3
2018-11-06T05:17:40.124Z,17.2
2018-11-06T05:18:30.761Z,17.3
2018-11-06T05:19:21.209Z,17.3
2018-11-06T05:20:10.600Z,17.2
2018-11-06T05:21:01.480Z,17.3
2018-11-06T05:21:50.460Z,17.3
2018-11-06T05:22:40.886Z,17.3
2018-11-06T05:23:31.009Z,17.3
2018-11-06T05:24:20.648Z,17.3
2018-11-06T05:25:12.237Z,17.2
2018-11-06T05:26:15.175Z,17.2
2018-11-06T05:26:51.155Z,17.3
2018-11-06T05:27:42.260Z,17.3
2018-11-06T05:28:31.616Z,17.3
2018-11-06T05:29:20.841Z,17.2
2018-11-06T05:30:11.490Z,17.3
2018-11-06T05:31:02.340Z,17.3
2018-11-06T05:31:52.244Z,17.3
2018-11-06T05:32:41.143Z,17.2
2018-11-06T09:08:48.161Z,18.2
2018-11-06T09:09:37.424Z,18.2
2018-11-06T09:10:29.127Z,18.1
2018-11-06T09:11:17.630Z,18.2
2018-11-06T09:12:08.634Z,18.2
2018-11-06T09:12:58.544Z,18.2
2018-11-06T09:13:49.189Z,18.2
2018-11-06T09:14:38.664Z,18.2
2018-11-06T09:15:27.604Z,18.3
2018-11-06T09:16:18.591Z,18.3
2018-11-06T09:17:10.529Z,18.3
2018-11-06T09:17:58.721Z,18.3
2018-11-06T09:18:48.771Z,18.3
2018-11-06T09:19:38.398Z,18.3
2018-11-06T09:20:28.229Z,18.3
2018-11-06T09:21:18.856Z,18.3
2018-11-06T09:22:08.868Z,18.3
2018-11-06T09:22:58.490Z,18.4
2018-11-06T09:23:48.766Z,18.3
2018-11-06T09:24:38.958Z,18.3
2018-11-06T09:25:28.970Z,18.4
2018-11-06T09:26:18.108Z,18.4
2018-11-06T09:27:08.474Z,18.4
2018-11-06T09:27:59.018Z,18.4
2018-11-06T09:28:50.007Z,18.4
2018-11-06T09:29:54.666Z,18.4
2018-11-06T09:30:29.441Z,18.4
2018-11-06T09:31:19.641Z,18.4
2018-11-06T09:32:08.674Z,18.4
2018-11-06T09:33:00.452Z,18.4
2018-11-06T09:33:49.504Z,18.4
2018-11-06T09:34:40.081Z,18.4
2018-11-06T09:35:29.916Z,18.4
2018-11-06T09:36:19.326Z,18.4
2018-11-06T09:37:10.185Z,18.4
2018-11-06T09:37:59.923Z,18.4
2018-11-06T09:38:49.246Z,18.4
2018-11-06T09:39:40.248Z,18.4
2018-11-06T09:41:20.992Z,18.4
2018-11-06T09:42:10.453Z,18.4
2018-11-06T09:43:00.948Z,18.4
2018-11-06T09:43:49.730Z,18.4
2018-11-06T09:44:39.940Z,18.4
2018-11-06T09:45:31.762Z,18.4
2018-11-06T09:46:19.472Z,18.4
2018-11-06T09:47:10.312Z,18.4
2018-11-06T09:48:00.540Z,18.4
2018-11-06T09:48:51.291Z,18.4
2018-11-06T09:49:39.729Z,18.4
2018-11-06T09:50:30.442Z,18.4
2018-11-06T09:51:19.897Z,18.4
2018-11-06T09:52:13.041Z,18.4
2018-11-06T09:53:01.129Z,18.4
2018-11-06T09:53:51.589Z,18.4
2018-11-06T09:54:41.239Z,18.4
2018-11-06T09:55:30.927Z,18.4
2018-11-06T09:56:20.527Z,18.4
2018-11-06T09:57:10.896Z,18.4
2018-11-06T09:58:01.204Z,18.4
2018-11-06T09:58:50.283Z,18.4
2018-11-06T09:59:42.110Z,18.4
2018-11-06T10:00:31.221Z,18.4
2018-11-06T10:01:21.637Z,18.4
2018-11-06T10:02:11.551Z,18.4
2018-11-06T10:03:02.161Z,18.4
2018-11-06T10:03:51.826Z,18.4
2018-11-06T10:04:41.114Z,18.4
2018-11-06T10:05:31.601Z,18.4
2018-11-06T10:06:24.397Z,18.4
2018-11-06T10:07:18.013Z,18.4
2018-11-06T10:08:02.854Z,18.4
2018-11-06T10:08:51.943Z,18.4
2018-11-06T10:09:42.398Z,18.4
2018-11-06T10:10:31.945Z,18.4
2018-11-06T10:11:23.225Z,18.4
2018-11-06T10:12:12.588Z,18.4
2018-11-06T10:13:03.048Z,18.4
2018-11-06T10:13:53.328Z,18.4
2018-11-06T10:14:41.885Z,18.4
2018-11-06T10:15:33.805Z,18.4
2018-11-06T10:16:22.504Z,18.4
2018-11-06T10:17:11.343Z,18.4
2018-11-06T10:18:03.575Z,18.4
2018-11-06T10:18:51.763Z,18.4
2018-11-06T10:19:43.089Z,18.4
2018-11-06T10:20:32.920Z,18.4
2018-11-06T10:21:24.115Z,18.4
2018-11-06T10:22:13.302Z,18.4
2018-11-06T10:23:02.570Z,18.4
2018-11-06T10:23:53.018Z,18.4
2018-11-06T10:24:43.210Z,18.4
2018-11-06T10:25:34.043Z,18.4
2018-11-06T10:26:23.827Z,18.4
2018-11-06T10:27:13.483Z,18.4
2018-11-06T10:28:03.372Z,18.4
2018-11-06T10:28:53.902Z,18.4
2018-11-06T10:29:43.770Z,18.4
2018-11-06T10:30:34.009Z,18.4
2018-11-06T10:31:23.021Z,18.4
2018-11-06T10:32:14.292Z,18.4
2018-11-06T10:33:04.122Z,18.5
2018-11-06T10:33:54.717Z,18.4
2018-11-06T10:34:43.867Z,18.5
2018-11-06T10:35:34.034Z,18.5
2018-11-06T10:36:24.934Z,18.5
2018-11-06T10:37:13.459Z,18.4
2018-11-06T10:38:03.815Z,18.5
2018-11-06T10:38:53.339Z,18.5
2018-11-06T10:39:44.715Z,18.5
2018-11-06T10:40:34.769Z,18.5
2018-11-06T10:41:23.799Z,18.4
2018-11-06T10:42:14.009Z,18.5
2018-11-06T10:43:04.309Z,18.5
2018-11-06T10:43:55.651Z,18.5
2018-11-06T10:44:45.075Z,18.5
2018-11-06T10:45:34.399Z,18.5
2018-11-06T10:46:24.323Z,18.5
2018-11-06T10:47:15.076Z,18.5
2018-11-06T10:48:04.004Z,18.5
2018-11-06T10:48:54.643Z,18.5
2018-11-06T10:49:45.354Z,18.5
2018-11-06T10:50:34.853Z,18.5
2018-11-06T10:51:26.051Z,18.5
2018-11-06T10:52:14.936Z,18.5
2018-11-06T10:53:04.339Z,18.5
2018-11-06T10:53:54.098Z,18.5
2018-11-06T10:54:46.000Z,18.5
2018-11-06T10:55:35.071Z,18.5
2018-11-06T10:56:25.775Z,18.5
2018-11-06T10:57:15.841Z,18.5
2018-11-06T10:58:05.771Z,18.5
2018-11-06T10:58:55.563Z,18.5
2018-11-06T10:59:45.582Z,18.5
2018-11-06T11:00:36.058Z,18.5
2018-11-06T11:01:26.563Z,18.5
2018-11-06T11:02:16.021Z,18.5
2018-11-06T11:03:06.223Z,18.5
2018-11-06T11:03:56.841Z,18.6
2018-11-06T11:04:46.538Z,18.6
2018-11-06T11:05:36.016Z,18.6
2018-11-06T11:06:25.998Z,18.6
2018-11-06T11:07:15.975Z,18.6
2018-11-06T11:08:06.701Z,18.6
2018-11-06T11:08:56.458Z,18.6
2018-11-06T11:09:46.339Z,18.6
2018-11-06T11:10:36.770Z,18.6
2018-11-06T11:11:27.260Z,18.6
2018-11-06T11:12:15.173Z,18.6
2018-11-06T11:13:07.295Z,18.6
2018-11-06T11:13:55.955Z,18.6
2018-11-06T11:14:46.317Z,18.6
2018-11-06T11:15:37.721Z,18.6
2018-11-06T11:16:28.154Z,18.6
2018-11-06T11:17:16.781Z,18.6
2018-11-06T11:18:05.687Z,18.6
2018-11-06T11:18:57.462Z,18.6
2018-11-06T11:19:46.394Z,18.6
2018-11-06T11:20:37.347Z,18.6
2018-11-06T11:21:27.474Z,18.6
2018-11-06T11:22:17.544Z,18.6
2018-11-06T11:23:07.244Z,18.6
2018-11-06T11:23:57.066Z,18.6
2018-11-06T11:24:47.005Z,18.6
2018-11-06T11:25:38.974Z,18.6
2018-11-06T11:26:27.194Z,18.6
2018-11-06T11:27:18.404Z,18.6
2018-11-06T11:28:07.254Z,18.6
2018-11-06T11:28:58.251Z,18.6
2018-11-06T11:29:47.066Z,18.6
2018-11-06T11:30:37.467Z,18.6
2018-11-06T11:31:28.535Z,18.6
2018-11-06T11:32:18.566Z,18.6
2018-11-06T11:33:08.274Z,18.6
2018-11-06T11:33:58.676Z,18.6
2018-11-06T11:34:47.381Z,18.6
2018-11-06T11:35:37.931Z,18.6
2018-11-06T11:36:29.211Z,18.6
2018-11-06T11:37:18.711Z,18.6
2018-11-06T11:38:07.891Z,18.6
2018-11-06T11:38:58.248Z,18.6
2018-11-06T11:39:49.673Z,18.6
2018-11-06T11:40:37.841Z,18.6
2018-11-06T11:41:29.475Z,18.6
2018-11-06T11:42:19.304Z,18.6
2018-11-06T11:43:08.171Z,18.6
2018-11-06T11:43:58.659Z,18.6
2018-11-06T11:46:28.455Z,18.6
2018-11-06T11:47:18.665Z,18.6
2018-11-06T11:52:19.788Z,18.6
2018-11-06T11:58:09.525Z,18.8
2018-11-06T11:59:00.397Z,18.8
2018-11-06T12:00:40.266Z,18.8
2018-11-06T12:02:21.440Z,18.8
2018-11-06T12:03:09.307Z,18.8
2018-11-06T12:04:00.654Z,18.8
2018-11-06T12:05:40.109Z,18.8
2018-11-06T12:06:30.597Z,18.8
2018-11-06T12:08:11.251Z,18.8
2018-11-06T12:14:01.731Z,18.8
2018-11-06T12:14:51.285Z,18.8
2018-11-06T12:15:40.456Z,18.8
2018-11-06T12:16:31.849Z,18.8
2018-11-06T12:17:22.056Z,18.8
2018-11-06T12:18:11.588Z,18.8
2018-11-06T12:19:01.511Z,18.8
2018-11-06T12:19:50.831Z,18.8
2018-11-06T12:20:42.306Z,18.8
2018-11-06T12:21:31.164Z,18.8
2018-11-06T12:22:20.649Z,18.8
2018-11-06T12:23:12.534Z,18.8
2018-11-06T12:24:02.328Z,18.8
2018-11-06T12:24:54.210Z,18.8
2018-11-06T12:26:31.967Z,18.8
2018-11-06T12:28:11.643Z,18.8
2018-11-06T12:30:42.893Z,18.8
2018-11-06T12:31:32.492Z,18.8
2018-11-06T12:32:22.566Z,18.8
2018-11-06T12:33:12.630Z,18.8
2018-11-06T12:34:03.735Z,18.8
2018-11-06T12:34:53.110Z,18.8
2018-11-06T12:35:43.517Z,18.8
2018-11-06T12:36:34.098Z,18.8
2018-11-06T12:37:23.468Z,18.8
2018-11-06T12:38:12.292Z,18.8
2018-11-06T12:39:02.710Z,18.8
2018-11-06T12:39:53.710Z,18.8
2018-11-06T12:40:42.942Z,18.8
2018-11-06T12:41:33.938Z,18.8
2018-11-06T12:42:22.238Z,18.8
2018-11-06T12:43:14.459Z,18.8
2018-11-06T12:44:02.862Z,18.8
2018-11-06T12:44:52.410Z,18.8
2018-11-06T12:45:43.249Z,18.8
2018-11-06T12:46:32.767Z,18.8
2018-11-06T12:47:22.669Z,18.8
2018-11-06T12:48:12.659Z,18.8
2018-11-06T12:49:04.042Z,18.8
2018-11-06T12:49:53.556Z,18.8
2018-11-06T12:50:43.112Z,18.8
2018-11-06T12:51:33.825Z,18.8
2018-11-06T12:53:13.749Z,18.8
2018-11-06T12:59:05.006Z,18.8
2018-11-06T13:02:24.474Z,18.8
2018-11-06T13:19:55.519Z,18.6
2018-11-06T13:22:25.863Z,18.6
2018-11-06T13:29:57.407Z,18.6
2018-11-06T13:30:47.512Z,18.6
2018-11-06T13:31:36.804Z,18.6
2018-11-06T13:32:28.947Z,18.6
2018-11-06T13:39:06.752Z,18.6
2018-11-06T13:39:58.576Z,18.6
2018-11-06T13:40:47.463Z,18.6
2018-11-06T13:41:37.604Z,18.6
2018-11-06T13:42:27.082Z,18.6
2018-11-06T13:43:18.751Z,18.6
2018-11-06T13:44:10.032Z,18.6
2018-11-06T13:45:00.536Z,18.6
2018-11-06T13:45:49.992Z,18.6
2018-11-06T13:46:37.990Z,18.6
2018-11-06T13:47:27.784Z,18.6
2018-11-06T13:48:17.466Z,18.6
2018-11-06T13:49:08.201Z,18.6
2018-11-06T14:07:39.221Z,18.4
2018-11-06T14:08:28.012Z,18.4
2018-11-06T14:09:18.195Z,18.4
2018-11-06T14:10:08.871Z,18.4
2018-11-06T14:10:59.019Z,18.4
2018-11-06T14:11:48.225Z,18.4
2018-11-06T14:12:38.527Z,18.4
2018-11-06T14:13:28.648Z,18.4
2018-11-06T14:14:18.488Z,18.4
2018-11-06T14:15:09.868Z,18.4
2018-11-06T14:15:58.408Z,18.4
2018-11-06T14:16:49.791Z,18.4
2018-11-06T14:17:39.539Z,18.4
2018-11-06T14:18:29.081Z,18.4
2018-11-06T14:19:19.811Z,18.4
2018-11-06T14:20:10.164Z,18.4
2018-11-06T14:20:59.514Z,18.4
2018-11-06T14:21:50.359Z,18.4
2018-11-06T14:22:39.869Z,18.5
2018-11-06T14:23:29.517Z,18.4
2018-11-06T14:24:20.777Z,18.4
2018-11-06T14:25:09.779Z,18.5
2018-11-06T14:25:59.997Z,18.4
2018-11-06T14:26:49.879Z,18.4
2018-11-06T14:27:42.092Z,18.4
2018-11-06T14:28:30.637Z,18.5
2018-11-06T14:29:19.773Z,18.5
2018-11-06T14:30:10.642Z,18.4
2018-11-06T14:31:00.033Z,18.5
2018-11-06T14:31:50.534Z,18.5
2018-11-06T14:32:40.212Z,18.4
2018-11-06T14:33:29.187Z,18.4
2018-11-06T14:34:18.791Z,18.4
2018-11-06T14:35:10.218Z,18.4
2018-11-06T14:36:03.401Z,18.4
2018-11-06T14:36:50.313Z,18.4
2018-11-06T14:37:39.538Z,18.4
2018-11-06T14:38:30.317Z,18.4
2018-11-06T14:39:20.179Z,18.4
2018-11-06T14:40:09.669Z,18.4
2018-11-06T14:41:01.447Z,18.4
2018-11-06T14:41:50.882Z,18.4
2018-11-06T14:42:41.982Z,18.4
2018-11-06T14:43:31.041Z,18.4
2018-11-06T14:44:21.289Z,18.4
2018-11-06T14:45:10.512Z,18.4
2018-11-06T14:46:01.288Z,18.4
2018-11-06T14:46:51.293Z,18.4
2018-11-06T14:47:42.198Z,18.4
2018-11-06T14:48:32.618Z,18.4
2018-11-06T14:49:23.495Z,18.4
2018-11-06T14:50:11.616Z,18.4
2018-11-06T14:51:02.028Z,18.4
2018-11-06T14:51:51.216Z,18.4
2018-11-06T14:52:41.888Z,18.4
2018-11-06T14:53:31.969Z,18.4
2018-11-06T14:54:21.695Z,18.4
2018-11-06T14:55:12.396Z,18.4
2018-11-06T14:56:03.483Z,18.4
2018-11-06T14:56:52.458Z,18.4
2018-11-06T14:57:42.948Z,18.4
2018-11-06T14:58:31.740Z,18.4
2018-11-06T14:59:23.223Z,18.4
2018-11-06T15:00:12.298Z,18.4
2018-11-06T15:01:03.375Z,18.3
2018-11-06T15:01:52.797Z,18.3
2018-11-06T15:02:42.997Z,18.3
2018-11-06T15:03:32.461Z,18.3
2018-11-06T15:04:20.958Z,18.3
2018-11-06T15:05:12.313Z,18.3
2018-11-06T15:06:02.446Z,18.3
2018-11-06T15:06:52.393Z,18.3
2018-11-06T15:07:42.808Z,18.3
2018-11-06T15:08:31.797Z,18.3
2018-11-06T15:09:22.248Z,18.3
2018-11-06T15:10:13.035Z,18.3
2018-11-06T15:11:02.685Z,18.3
2018-11-06T15:11:52.790Z,18.3
2018-11-06T15:12:44.427Z,18.3
2018-11-06T15:13:33.962Z,18.3
2018-11-06T15:14:23.254Z,18.3
2018-11-06T15:15:12.617Z,18.3
2018-11-06T15:16:03.097Z,18.3
2018-11-06T15:16:53.374Z,18.3
2018-11-06T15:17:43.312Z,18.3
2018-11-06T15:18:34.085Z,18.3
2018-11-06T15:19:23.165Z,18.3
2018-11-06T15:20:13.592Z,18.3
2018-11-06T15:21:05.271Z,18.3
2018-11-06T15:21:54.767Z,18.3
2018-11-06T15:22:44.057Z,18.3
2018-11-06T15:23:33.512Z,18.3
2018-11-06T15:24:24.426Z,18.2
2018-11-06T15:25:13.606Z,18.2
2018-11-06T15:26:03.444Z,18.3
2018-11-06T15:26:54.338Z,18.2
2018-11-06T15:27:44.615Z,18.3
2018-11-06T15:28:34.535Z,18.3
2018-11-06T15:29:24.594Z,18.2
2018-11-06T15:30:15.339Z,18.2
2018-11-06T15:31:04.374Z,18.2
2018-11-06T15:31:55.146Z,18.2
2018-11-06T15:32:45.295Z,18.2
2018-11-06T15:33:34.138Z,18.2
2018-11-06T15:34:24.354Z,18.2
2018-11-06T15:35:15.818Z,18.2
2018-11-06T15:36:03.857Z,18.2
2018-11-06T15:36:55.925Z,18.1
2018-11-06T15:37:45.829Z,18.2
2018-11-06T15:38:35.295Z,18.2
2018-11-06T15:39:25.337Z,18.2
2018-11-06T15:40:14.788Z,18.2
2018-11-06T15:41:09.494Z,18.2
2018-11-06T15:41:57.810Z,18.1
2018-11-06T15:42:45.847Z,18.2
2018-11-06T15:43:35.386Z,18.1
2018-11-06T15:44:24.482Z,18.1
2018-11-06T15:45:15.827Z,18.1
2018-11-06T15:46:06.121Z,18.1
2018-11-06T15:46:56.466Z,18.1
2018-11-06T15:47:45.802Z,18.1
2018-11-06T15:48:35.870Z,18.1
2018-11-06T15:49:25.852Z,18.1
2018-11-06T15:50:15.272Z,18.1
2018-11-06T15:51:06.344Z,18.1
2018-11-06T15:51:55.784Z,18.1
2018-11-06T15:52:46.022Z,18.1
2018-11-06T15:53:36.501Z,18.1
2018-11-06T15:54:24.723Z,18.1
2018-11-06T15:55:16.306Z,18.1
2018-11-06T15:56:05.036Z,18.1
2018-11-06T15:56:56.698Z,18.1
2018-11-06T15:57:45.866Z,18.1
2018-11-06T15:58:35.736Z,18.1
2018-11-06T15:59:26.466Z,18.1
2018-11-06T16:00:17.385Z,18.1
2018-11-06T16:01:08.015Z,18.1
2018-11-06T16:01:56.708Z,18.1
2018-11-06T16:02:46.308Z,18.1
2018-11-06T16:03:38.784Z,18.1
2018-11-06T16:04:26.795Z,18.1
2018-11-06T16:05:17.715Z,18.1
2018-11-06T16:06:07.580Z,18.1
2018-11-06T16:06:56.367Z,18.1
2018-11-06T16:07:48.078Z,18.1
2018-11-06T16:08:37.630Z,18.1
2018-11-06T16:09:27.448Z,18.1
2018-11-06T16:10:17.022Z,18.1
2018-11-06T16:11:07.098Z,18.1
2018-11-06T16:11:57.052Z,18.1
2018-11-06T16:12:47.737Z,18.1
2018-11-06T16:13:38.424Z,18.1
2018-11-06T16:14:27.533Z,18.1
2018-11-06T16:15:18.288Z,18.1
2018-11-06T16:16:07.857Z,18.1
2018-11-06T16:16:58.937Z,18
2018-11-06T16:17:48.480Z,18.1
2018-11-06T16:18:38.147Z,18.1
2018-11-06T16:19:28.180Z,18.1
2018-11-06T16:20:18.299Z,18.1
2018-11-06T16:21:10.531Z,18
2018-11-06T16:21:57.788Z,18
2018-11-06T16:22:47.791Z,18
2018-11-06T16:23:37.371Z,18
2018-11-06T16:24:28.190Z,18
2018-11-06T16:25:18.149Z,18.1
2018-11-06T16:26:09.517Z,18
2018-11-06T16:26:58.266Z,18
2018-11-06T16:27:48.610Z,18.1
2018-11-06T16:28:38.392Z,18
2018-11-06T16:29:29.579Z,18
2018-11-06T16:30:17.741Z,18
2018-11-06T16:31:09.477Z,18
2018-11-06T16:31:58.881Z,18
2018-11-06T16:32:49.551Z,18.1
2018-11-06T16:33:38.167Z,18.1
2018-11-06T16:34:29.402Z,18.1
2018-11-06T16:35:18.681Z,18
2018-11-06T16:36:08.304Z,18.1
2018-11-06T16:36:58.424Z,18.1